Time;durP1;ratioP1;P1;durP2;ratioP2;P2;SDS_P1;SDS_P2;PMS_P1;PMS_P2;Temp;Humidity;BMP_temperature;BMP_pressure;BME280_temperature;BME280_humidity;BME280_pressure;Samples;Min_cycle;Max_cycle;Signal;HPM_P1;HPM_P2
2024/01/09 00:00:30;;;;;;;6.97;3.70;;;-2.00;77.30;;;;;;5002005;28;20073;-85
2024/01/09 00:02:55;;;;;;;7.77;3.90;;;-2.00;77.30;;;;;;5007856;28;20064;-85
2024/01/09 00:05:21;;;;;;;8.93;4.60;;;-2.00;77.30;;;;;;5018997;28;20034;-85
2024/01/09 00:07:47;;;;;;;13.30;4.40;;;-2.00;77.40;;;;;;5023447;28;20052;-86
2024/01/09 00:10:12;;;;;;;6.80;4.00;;;-2.00;77.40;;;;;;5004713;28;20072;-85
2024/01/09 00:12:38;;;;;;;6.97;3.67;;;-2.00;77.40;;;;;;5000431;28;20037;-85
2024/01/09 00:15:06;;;;;;;8.20;4.13;;;-2.10;77.40;;;;;;5002192;28;20045;-85
2024/01/09 00:17:32;;;;;;;7.40;4.10;;;-2.00;77.30;;;;;;5005444;28;20045;-85
2024/01/09 00:19:58;;;;;;;8.13;4.20;;;-2.10;77.40;;;;;;4999472;28;20038;-85
2024/01/09 00:22:23;;;;;;;7.43;3.70;;;-2.10;77.80;;;;;;5023048;28;20034;-85
2024/01/09 00:24:49;;;;;;;8.40;4.37;;;-2.10;77.40;;;;;;4997815;28;20049;-85
2024/01/09 00:27:15;;;;;;;10.77;3.33;;;-2.30;77.20;;;;;;5008917;28;20093;-85
2024/01/09 00:29:40;;;;;;;7.30;3.57;;;-2.10;77.40;;;;;;5013016;28;20507;-86
2024/01/09 00:32:06;;;;;;;7.33;3.63;;;-2.10;77.40;;;;;;5025397;28;20040;-85
2024/01/09 00:34:31;;;;;;;8.87;4.30;;;-2.20;77.30;;;;;;5010360;28;20416;-86
2024/01/09 00:36:57;;;;;;;8.77;3.83;;;-2.20;77.20;;;;;;5012286;28;20067;-86
2024/01/09 00:39:23;;;;;;;8.63;4.27;;;-2.20;77.20;;;;;;5023403;28;20033;-86
2024/01/09 00:41:48;;;;;;;6.73;3.80;;;-2.20;77.20;;;;;;5010588;28;20390;-86
2024/01/09 00:44:14;;;;;;;7.57;3.43;;;-2.20;77.30;;;;;;5014073;28;20069;-86
2024/01/09 00:46:39;;;;;;;10.67;3.83;;;-2.20;77.20;;;;;;5009658;28;20065;-86
2024/01/09 00:49:05;;;;;;;10.97;4.10;;;-2.20;77.20;;;;;;5002993;28;20116;-86
2024/01/09 00:51:30;;;;;;;6.17;3.30;;;-2.20;77.30;;;;;;5018656;28;20049;-86
2024/01/09 00:53:56;;;;;;;8.20;3.37;;;-2.30;77.30;;;;;;5000880;28;20049;-86
2024/01/09 00:56:22;;;;;;;6.13;3.50;;;-2.30;77.20;;;;;;5009720;28;20034;-86
2024/01/09 00:58:47;;;;;;;6.57;4.27;;;-2.30;77.20;;;;;;5005663;28;20042;-86
2024/01/09 01:01:13;;;;;;;6.23;3.40;;;-2.30;77.30;;;;;;5022662;28;20065;-86
2024/01/09 01:03:40;;;;;;;7.70;3.80;;;-2.30;77.30;;;;;;5025925;28;20093;-86
2024/01/09 01:06:05;;;;;;;7.70;3.53;;;-2.30;77.30;;;;;;5009646;28;20038;-86
2024/01/09 01:08:31;;;;;;;8.33;3.23;;;-2.30;77.30;;;;;;5011932;28;20045;-86
2024/01/09 01:10:56;;;;;;;8.80;3.87;;;-2.30;77.30;;;;;;5005378;28;20037;-86
2024/01/09 01:13:22;;;;;;;6.20;3.33;;;-2.40;77.30;;;;;;5007268;28;20040;-86
2024/01/09 01:15:48;;;;;;;8.33;3.87;;;-2.40;77.30;;;;;;5021597;28;20038;-86
2024/01/09 01:18:13;;;;;;;8.03;3.53;;;-2.40;77.40;;;;;;5021478;28;20469;-86
2024/01/09 01:20:39;;;;;;;6.30;3.43;;;-2.40;77.40;;;;;;5021405;28;20484;-86
2024/01/09 01:23:05;;;;;;;8.37;3.90;;;-2.40;77.40;;;;;;5004547;28;20516;-86
2024/01/09 01:25:30;;;;;;;7.00;3.63;;;-2.50;77.40;;;;;;5010908;28;20045;-86
2024/01/09 01:27:56;;;;;;;9.07;2.93;;;-2.50;77.40;;;;;;5007892;28;20057;-86
2024/01/09 01:30:22;;;;;;;4.97;3.07;;;-1.80;77.90;;;;;;5003529;28;20120;-86
2024/01/09 01:32:47;;;;;;;6.40;2.80;;;-2.50;77.50;;;;;;5021819;28;20068;-86
2024/01/09 01:35:13;;;;;;;7.00;3.33;;;-2.50;77.50;;;;;;5000809;28;20046;-86
2024/01/09 01:37:39;;;;;;;6.50;3.70;;;-2.60;77.40;;;;;;5005186;28;20527;-86
2024/01/09 01:40:05;;;;;;;4.80;2.93;;;-2.60;77.40;;;;;;5019133;28;20480;-86
2024/01/09 01:42:30;;;;;;;7.33;3.57;;;-2.60;77.50;;;;;;5004298;28;20158;-86
2024/01/09 01:44:56;;;;;;;6.80;3.47;;;-2.70;77.50;;;;;;5009715;28;20487;-86
2024/01/09 01:47:22;;;;;;;6.97;3.30;;;-2.70;77.60;;;;;;4998251;28;20071;-86
2024/01/09 01:49:48;;;;;;;8.00;3.67;;;-2.70;77.70;;;;;;5009418;28;20095;-87
2024/01/09 01:52:14;;;;;;;6.07;3.30;;;-2.70;77.70;;;;;;5022692;28;20034;-87
2024/01/09 01:54:41;;;;;;;9.63;3.53;;;-2.70;77.80;;;;;;5017711;28;20041;-87
2024/01/09 01:57:08;;;;;;;6.33;3.47;;;-2.80;77.80;;;;;;5012065;28;20475;-87
2024/01/09 01:59:38;;;;;;;7.67;3.47;;;-2.80;77.90;;;;;;5012841;28;20038;-87
2024/01/09 02:02:05;;;;;;;12.47;6.03;;;-2.80;77.90;;;;;;5023736;28;20029;-86
2024/01/09 02:04:31;;;;;;;7.83;4.10;;;-2.80;78.10;;;;;;5017056;28;20195;-86
2024/01/09 02:06:57;;;;;;;7.87;3.50;;;-2.80;78.10;;;;;;5027970;28;20047;-87
2024/01/09 02:09:24;;;;;;;5.93;3.67;;;-2.90;78.30;;;;;;5033010;28;20120;-86
2024/01/09 02:11:50;;;;;;;8.30;3.83;;;-2.90;78.30;;;;;;5008316;28;20041;-87
2024/01/09 02:14:16;;;;;;;6.87;3.70;;;-2.90;78.40;;;;;;5024900;28;20077;-87
2024/01/09 02:16:42;;;;;;;8.10;3.50;;;-2.90;78.60;;;;;;5008897;28;20045;-87
2024/01/09 02:19:07;;;;;;;6.27;3.70;;;-2.90;78.70;;;;;;5007780;28;20034;-87
2024/01/09 02:21:33;;;;;;;7.50;3.30;;;-3.00;78.70;;;;;;5006448;28;20045;-87
2024/01/09 02:23:59;;;;;;;8.43;3.83;;;-3.00;78.80;;;;;;5005644;28;20029;-87
2024/01/09 02:26:30;;;;;;;8.50;4.00;;;-3.00;78.80;;;;;;5004077;28;20037;-87
2024/01/09 02:29:01;;;;;;;6.97;2.87;;;-3.00;78.90;;;;;;5017642;28;20049;-87
2024/01/09 02:31:27;;;;;;;7.63;3.20;;;-3.00;79.00;;;;;;5005241;28;20049;-87
2024/01/09 02:33:54;;;;;;;6.43;3.70;;;-3.00;79.30;;;;;;5019257;28;20516;-87
2024/01/09 02:36:19;;;;;;;7.87;3.40;;;-3.00;79.10;;;;;;5009658;28;20112;-87
2024/01/09 02:38:45;;;;;;;6.33;3.07;;;-3.00;79.10;;;;;;5010855;28;20072;-87
2024/01/09 02:41:11;;;;;;;8.07;3.10;;;-3.00;79.20;;;;;;5028434;28;20025;-87
2024/01/09 02:43:36;;;;;;;5.70;2.90;;;-3.00;79.10;;;;;;5006744;28;20112;-87
2024/01/09 02:46:02;;;;;;;6.23;3.20;;;-3.00;79.10;;;;;;5007246;28;20083;-87
2024/01/09 02:48:27;;;;;;;7.53;3.07;;;-3.00;79.10;;;;;;5006531;28;20547;-87
2024/01/09 02:50:53;;;;;;;6.60;3.30;;;-3.10;79.20;;;;;;5023028;28;20033;-87
2024/01/09 02:53:19;;;;;;;5.00;3.00;;;-3.10;79.20;;;;;;5005645;28;20037;-87
2024/01/09 02:55:44;;;;;;;6.90;2.83;;;-3.10;79.40;;;;;;5004881;28;20034;-87
2024/01/09 02:58:10;;;;;;;5.53;3.17;;;-3.00;79.40;;;;;;5004365;28;20116;-87
2024/01/09 03:00:35;;;;;;;6.77;3.33;;;-3.00;79.30;;;;;;5005306;28;20038;-88
2024/01/09 03:03:01;;;;;;;6.80;2.93;;;-3.10;79.40;;;;;;5000222;28;20038;-88
2024/01/09 03:05:27;;;;;;;6.90;3.17;;;-3.10;79.30;;;;;;5017500;28;20034;-88
2024/01/09 03:07:52;;;;;;;6.43;3.33;;;-3.10;79.50;;;;;;5003072;28;20042;-87
2024/01/09 03:10:18;;;;;;;8.33;3.70;;;-3.10;79.50;;;;;;5006716;28;20033;-88
2024/01/09 03:12:43;;;;;;;4.77;2.93;;;-3.10;79.40;;;;;;5002518;28;20574;-88
2024/01/09 03:15:09;;;;;;;8.87;4.00;;;-3.10;79.50;;;;;;5005242;28;20072;-89
2024/01/09 03:17:35;;;;;;;7.30;3.30;;;-3.10;79.60;;;;;;5017991;28;20075;-88
2024/01/09 03:20:01;;;;;;;6.60;3.20;;;-3.10;79.60;;;;;;5006365;28;20444;-88
2024/01/09 03:22:26;;;;;;;7.33;3.17;;;-3.10;79.70;;;;;;5024456;28;20192;-88
2024/01/09 03:24:52;;;;;;;6.67;3.70;;;-3.10;79.50;;;;;;5005722;28;20392;-88
2024/01/09 03:27:17;;;;;;;5.73;4.10;;;-3.10;79.60;;;;;;5007116;28;20056;-88
2024/01/09 03:29:43;;;;;;;7.77;3.63;;;-3.10;79.60;;;;;;4999850;28;20053;-88
2024/01/09 03:32:09;;;;;;;7.20;3.60;;;-3.10;79.70;;;;;;5004757;28;20522;-88
2024/01/09 03:34:34;;;;;;;7.40;3.40;;;-3.20;79.60;;;;;;5006747;28;20045;-88
2024/01/09 03:37:00;;;;;;;6.40;3.33;;;-3.20;79.70;;;;;;5006159;28;20151;-88
2024/01/09 03:39:25;;;;;;;7.30;2.87;;;-3.20;79.60;;;;;;5002691;28;20042;-88
2024/01/09 03:41:52;;;;;;;8.17;3.30;;;-3.10;79.70;;;;;;5001282;28;20080;-88
2024/01/09 03:44:17;;;;;;;7.00;3.23;;;-3.20;79.60;;;;;;5005418;28;20079;-88
2024/01/09 03:46:43;;;;;;;6.60;3.40;;;-3.20;79.70;;;;;;5022411;28;20045;-88
2024/01/09 03:49:09;;;;;;;5.57;3.30;;;-3.20;79.60;;;;;;5023205;28;20052;-88
2024/01/09 03:51:35;;;;;;;7.37;3.43;;;-3.10;79.50;;;;;;4984951;28;20041;-88
2024/01/09 03:54:00;;;;;;;6.57;3.07;;;-3.20;79.50;;;;;;5007519;28;20472;-88
2024/01/09 03:56:26;;;;;;;8.97;3.33;;;-3.20;79.40;;;;;;5010599;28;20041;-88
2024/01/09 03:58:52;;;;;;;8.80;3.30;;;-3.20;79.30;;;;;;5022166;28;20041;-88
2024/01/09 04:01:18;;;;;;;6.40;2.90;;;-3.20;79.30;;;;;;5002863;28;20040;-89
2024/01/09 04:03:44;;;;;;;6.43;3.37;;;-3.20;79.20;;;;;;5003616;28;20038;-89
2024/01/09 04:06:09;;;;;;;5.57;2.60;;;-3.20;79.10;;;;;;4997631;28;20116;-89
2024/01/09 04:08:35;;;;;;;6.03;3.10;;;-3.20;79.10;;;;;;4999303;28;20807;-89
2024/01/09 04:11:03;;;;;;;5.10;2.77;;;-3.20;79.50;;;;;;5016187;28;20137;-89
2024/01/09 04:13:29;;;;;;;4.97;2.90;;;-3.30;79.00;;;;;;5018681;28;20045;-89
2024/01/09 04:15:55;;;;;;;6.87;3.10;;;-3.30;79.00;;;;;;5010835;28;20110;-89
2024/01/09 04:18:20;;;;;;;7.30;3.97;;;-3.30;79.00;;;;;;5010974;28;20045;-89
2024/01/09 04:20:46;;;;;;;6.57;3.03;;;-3.30;78.90;;;;;;5007398;28;20594;-89
2024/01/09 04:23:11;;;;;;;6.87;2.83;;;-3.30;78.90;;;;;;5007046;28;20405;-89
2024/01/09 04:25:37;;;;;;;9.93;4.10;;;-3.30;78.80;;;;;;5010786;28;20034;-89
2024/01/09 04:28:03;;;;;;;6.93;3.77;;;-3.30;78.70;;;;;;4993517;28;20069;-88
2024/01/09 04:30:29;;;;;;;5.37;2.70;;;-3.40;78.60;;;;;;5005683;28;20111;-88
2024/01/09 04:32:54;;;;;;;6.43;3.30;;;-3.40;78.70;;;;;;5005842;28;20107;-89
2024/01/09 04:35:20;;;;;;;6.37;2.80;;;-3.40;78.70;;;;;;5029691;28;20037;-88
2024/01/09 04:37:45;;;;;;;6.67;2.80;;;-3.40;78.60;;;;;;4991055;28;20033;-89
2024/01/09 04:40:11;;;;;;;6.43;3.23;;;-3.40;78.60;;;;;;5003293;28;20034;-89
2024/01/09 04:42:37;;;;;;;7.50;4.23;;;-3.40;78.60;;;;;;5019759;28;20045;-88
2024/01/09 04:45:03;;;;;;;5.40;2.77;;;-3.40;78.60;;;;;;4998903;28;20050;-89
2024/01/09 04:47:29;;;;;;;8.50;3.20;;;-3.40;78.40;;;;;;5006689;28;20072;-88
2024/01/09 04:49:54;;;;;;;5.10;2.87;;;-3.50;78.30;;;;;;5001478;28;20042;-88
2024/01/09 04:52:20;;;;;;;5.90;2.60;;;-3.50;78.40;;;;;;5008936;28;20407;-88
2024/01/09 04:54:46;;;;;;;6.37;3.13;;;-3.50;78.50;;;;;;5021523;28;20073;-88
2024/01/09 04:57:12;;;;;;;5.43;2.77;;;-3.50;78.40;;;;;;5006708;28;20042;-88
2024/01/09 04:59:41;;;;;;;5.90;2.80;;;-3.50;78.30;;;;;;5006669;28;20147;-88
2024/01/09 05:02:07;;;;;;;7.43;2.83;;;-3.50;78.30;;;;;;5003291;28;20091;-87
2024/01/09 05:04:32;;;;;;;5.17;2.80;;;-3.60;78.30;;;;;;5008284;28;20404;-88
2024/01/09 05:06:58;;;;;;;5.80;2.90;;;-3.50;78.20;;;;;;5010431;28;20038;-88
2024/01/09 05:09:24;;;;;;;6.23;3.20;;;-3.50;78.20;;;;;;5001896;28;20065;-88
2024/01/09 05:11:50;;;;;;;5.07;2.73;;;-3.60;78.00;;;;;;5007344;28;20421;-88
2024/01/09 05:14:16;;;;;;;4.63;2.90;;;-3.50;78.00;;;;;;5005369;28;20053;-87
2024/01/09 05:16:41;;;;;;;4.67;2.20;;;-3.60;77.90;;;;;;5008835;28;20045;-87
2024/01/09 05:19:07;;;;;;;6.47;2.53;;;-3.60;78.00;;;;;;5006978;28;20057;-87
2024/01/09 05:21:33;;;;;;;9.10;2.90;;;-3.60;78.00;;;;;;5014231;28;20042;-87
2024/01/09 05:23:58;;;;;;;6.63;3.30;;;-3.80;77.80;;;;;;5009687;28;20037;-87
2024/01/09 05:26:24;;;;;;;5.97;2.97;;;-3.10;78.20;;;;;;5009970;28;20456;-87
2024/01/09 05:28:50;;;;;;;6.20;3.10;;;-3.70;77.80;;;;;;5008043;28;20042;-86
2024/01/09 05:31:15;;;;;;;8.43;3.37;;;-3.70;77.50;;;;;;5027361;28;20049;-87
2024/01/09 05:33:41;;;;;;;5.50;2.60;;;-3.70;77.50;;;;;;5030278;28;20065;-86
2024/01/09 05:36:07;;;;;;;5.47;3.13;;;-3.70;77.50;;;;;;5005780;28;20034;-86
2024/01/09 05:38:33;;;;;;;7.37;3.10;;;-3.70;77.50;;;;;;5008129;28;20499;-86
2024/01/09 05:40:58;;;;;;;6.20;2.77;;;-3.70;77.50;;;;;;5018865;28;20041;-86
2024/01/09 05:43:24;;;;;;;5.90;2.80;;;-3.80;77.40;;;;;;5003546;28;20519;-86
2024/01/09 05:45:50;;;;;;;10.60;3.57;;;-3.80;77.40;;;;;;5021472;28;20076;-87
2024/01/09 05:48:15;;;;;;;5.20;2.57;;;-3.80;77.40;;;;;;5005399;28;20129;-86
2024/01/09 05:50:41;;;;;;;6.67;2.93;;;-3.80;77.40;;;;;;5007217;28;20037;-86
2024/01/09 05:53:07;;;;;;;5.27;3.43;;;-3.80;77.40;;;;;;5003501;28;20029;-86
2024/01/09 05:55:33;;;;;;;6.13;2.60;;;-3.90;77.40;;;;;;5025886;28;20050;-86
2024/01/09 05:57:59;;;;;;;5.70;2.87;;;-3.90;77.50;;;;;;5003934;28;20121;-86
2024/01/09 06:00:24;;;;;;;4.10;2.40;;;-3.90;77.40;;;;;;5007542;28;20400;-87
2024/01/09 06:02:51;;;;;;;4.77;3.00;;;-3.90;77.60;;;;;;5019699;28;20041;-86
2024/01/09 06:05:17;;;;;;;5.43;3.00;;;-3.90;77.60;;;;;;5008041;28;20026;-87
2024/01/09 06:07:42;;;;;;;6.27;3.00;;;-4.00;77.50;;;;;;5006757;28;20033;-87
2024/01/09 06:10:08;;;;;;;5.60;2.70;;;-4.00;77.60;;;;;;5004271;28;20404;-87
2024/01/09 06:12:34;;;;;;;5.60;2.77;;;-4.00;77.40;;;;;;5020439;28;20033;-87
2024/01/09 06:15:00;;;;;;;4.77;2.50;;;-4.00;77.40;;;;;;4999826;28;20065;-87
2024/01/09 06:17:25;;;;;;;5.00;2.30;;;-4.00;77.40;;;;;;5021406;28;20068;-87
2024/01/09 06:19:52;;;;;;;5.50;2.60;;;-4.00;77.40;;;;;;5022677;28;20075;-87
2024/01/09 06:22:17;;;;;;;4.83;2.20;;;-4.00;77.30;;;;;;5016393;28;20080;-87
2024/01/09 06:24:43;;;;;;;5.37;2.40;;;-4.00;77.10;;;;;;5023446;28;20064;-87
2024/01/09 06:27:08;;;;;;;5.63;2.50;;;-4.10;76.80;;;;;;5017001;28;20559;-87
2024/01/09 06:29:34;;;;;;;4.43;3.00;;;-4.00;77.00;;;;;;5026519;28;20040;-87
2024/01/09 06:31:59;;;;;;;5.40;2.97;;;-4.00;76.90;;;;;;5008544;28;20499;-86
2024/01/09 06:34:25;;;;;;;5.43;2.73;;;-4.10;76.80;;;;;;5003899;28;20042;-87
2024/01/09 06:36:51;;;;;;;7.13;2.97;;;-4.10;76.70;;;;;;5007433;28;20064;-87
2024/01/09 06:39:16;;;;;;;5.80;2.93;;;-4.10;76.60;;;;;;5020776;28;20045;-86
2024/01/09 06:41:43;;;;;;;5.63;2.63;;;-4.10;76.50;;;;;;5005057;28;20437;-86
2024/01/09 06:44:09;;;;;;;8.10;2.67;;;-4.10;76.50;;;;;;4999006;28;20156;-86
2024/01/09 06:46:35;;;;;;;7.07;2.57;;;-4.10;76.50;;;;;;5016170;28;20627;-86
2024/01/09 06:49:01;;;;;;;7.20;2.53;;;-4.10;76.30;;;;;;5001417;28;20038;-84
2024/01/09 06:51:28;;;;;;;6.17;2.67;;;-4.10;76.20;;;;;;5020597;28;20046;-86
2024/01/09 06:53:54;;;;;;;7.07;3.13;;;-4.10;76.30;;;;;;4999195;28;20488;-86
2024/01/09 06:56:20;;;;;;;5.00;2.73;;;-4.20;76.30;;;;;;5029073;28;20042;-86
2024/01/09 06:58:45;;;;;;;5.43;2.77;;;-4.20;76.30;;;;;;5017962;28;20032;-87
2024/01/09 07:01:11;;;;;;;6.67;2.90;;;-4.20;76.30;;;;;;5025442;28;20066;-87
2024/01/09 07:03:37;;;;;;;7.40;3.20;;;-4.20;76.20;;;;;;5005048;28;20097;-88
2024/01/09 07:06:03;;;;;;;6.47;2.83;;;-4.20;76.10;;;;;;5007144;28;20115;-87
2024/01/09 07:08:32;;;;;;;4.50;2.27;;;-4.20;76.10;;;;;;5005039;28;20153;-85
2024/01/09 07:10:57;;;;;;;9.77;3.13;;;-4.20;76.00;;;;;;5025730;28;20056;-86
2024/01/09 07:13:23;;;;;;;5.20;2.50;;;-4.20;75.90;;;;;;5020239;28;20540;-84
2024/01/09 07:15:52;;;;;;;7.37;2.93;;;-4.20;75.90;;;;;;5009414;28;20187;-85
2024/01/09 07:18:17;;;;;;;6.27;2.70;;;-4.20;75.90;;;;;;5005033;28;20038;-85
2024/01/09 07:20:44;;;;;;;4.57;2.60;;;-4.20;76.10;;;;;;5003330;28;20088;-85
2024/01/09 07:23:09;;;;;;;5.60;2.50;;;-4.30;75.80;;;;;;5004907;28;20470;-86
2024/01/09 07:25:35;;;;;;;5.10;2.90;;;-4.30;75.80;;;;;;5021386;28;20111;-86
2024/01/09 07:28:01;;;;;;;6.00;3.17;;;-4.20;75.80;;;;;;5007992;28;20040;-85
2024/01/09 07:30:26;;;;;;;8.03;3.07;;;-4.30;75.50;;;;;;5003311;28;20041;-85
2024/01/09 07:32:52;;;;;;;7.07;2.70;;;-4.30;75.50;;;;;;5004755;28;20068;-85
2024/01/09 07:35:17;;;;;;;7.40;3.40;;;-4.30;75.40;;;;;;5003755;28;20152;-85
2024/01/09 07:37:43;;;;;;;5.60;2.63;;;-4.30;75.30;;;;;;4999718;28;20030;-85
2024/01/09 07:40:09;;;;;;;6.63;3.00;;;-4.30;75.40;;;;;;5002000;28;20506;-84
2024/01/09 07:42:35;;;;;;;5.27;2.57;;;-4.30;75.30;;;;;;5002547;28;20062;-85
2024/01/09 07:45:02;;;;;;;6.50;3.23;;;-4.30;75.30;;;;;;5022290;28;20073;-85
2024/01/09 07:47:28;;;;;;;7.13;3.10;;;-4.30;75.20;;;;;;5006013;28;20057;-85
2024/01/09 07:49:53;;;;;;;7.83;2.33;;;-4.30;75.10;;;;;;5004468;28;20040;-85
2024/01/09 07:52:19;;;;;;;4.40;2.47;;;-4.30;74.80;;;;;;5005596;28;20496;-84
2024/01/09 07:54:45;;;;;;;6.10;2.80;;;-4.30;74.80;;;;;;5004436;28;20069;-85
2024/01/09 07:57:11;;;;;;;6.03;2.87;;;-4.30;74.80;;;;;;5006032;28;20532;-85
2024/01/09 07:59:36;;;;;;;6.10;3.03;;;-4.30;74.90;;;;;;5015766;28;20050;-85
2024/01/09 08:02:02;;;;;;;4.50;2.87;;;-4.30;74.80;;;;;;5021763;28;20120;-84
2024/01/09 08:04:28;;;;;;;7.77;3.83;;;-4.30;74.80;;;;;;5018898;28;20059;-84
2024/01/09 08:06:54;;;;;;;5.70;2.87;;;-4.30;74.80;;;;;;5003252;28;20042;-84
2024/01/09 08:09:20;;;;;;;7.70;2.80;;;-4.30;74.80;;;;;;5016878;28;20042;-84
2024/01/09 08:11:46;;;;;;;5.60;3.03;;;-4.30;74.80;;;;;;5000157;28;20069;-84
2024/01/09 08:14:13;;;;;;;7.37;2.70;;;-4.30;74.80;;;;;;4985387;28;20048;-86
2024/01/09 08:16:40;;;;;;;5.30;2.40;;;-4.30;74.70;;;;;;4998044;28;20380;-85
2024/01/09 08:19:06;;;;;;;10.83;2.87;;;-4.30;74.70;;;;;;5016573;28;20475;-84
2024/01/09 08:21:32;;;;;;;7.17;3.57;;;-4.30;74.50;;;;;;5002931;28;20033;-84
2024/01/09 08:23:57;;;;;;;7.43;2.90;;;-4.30;74.40;;;;;;5016883;28;20137;-83
2024/01/09 08:26:23;;;;;;;6.83;2.60;;;-4.30;74.10;;;;;;5008207;28;20103;-83
2024/01/09 08:28:49;;;;;;;6.17;3.47;;;-4.30;73.90;;;;;;5005193;28;20033;-83
2024/01/09 08:31:16;;;;;;;6.07;2.70;;;-4.30;73.70;;;;;;5025637;28;20056;-83
2024/01/09 08:33:41;;;;;;;8.07;2.97;;;-4.30;73.50;;;;;;5014958;28;20061;-83
2024/01/09 08:36:07;;;;;;;5.20;2.50;;;-4.30;73.30;;;;;;5028065;28;20038;-83
2024/01/09 08:38:32;;;;;;;5.60;2.70;;;-4.30;73.40;;;;;;5032296;28;20487;-83
2024/01/09 08:40:58;;;;;;;5.90;3.10;;;-4.30;73.20;;;;;;5031847;28;20099;-85
2024/01/09 08:43:24;;;;;;;5.77;3.00;;;-4.30;72.90;;;;;;5005259;28;20053;-84
2024/01/09 08:45:50;;;;;;;5.40;2.83;;;-4.20;72.80;;;;;;4998341;28;20056;-84
2024/01/09 08:48:17;;;;;;;6.27;2.90;;;-4.20;72.30;;;;;;5026964;28;20136;-84
2024/01/09 08:50:43;;;;;;;5.70;3.00;;;-4.20;72.10;;;;;;5001376;28;20539;-84
2024/01/09 08:53:11;;;;;;;6.70;3.13;;;-4.20;71.80;;;;;;5020720;28;20030;-84
2024/01/09 08:55:37;;;;;;;6.00;3.17;;;-4.10;71.70;;;;;;5012266;28;20092;-84
2024/01/09 08:58:03;;;;;;;7.53;4.03;;;-4.10;71.10;;;;;;5024322;28;20481;-84
2024/01/09 09:00:29;;;;;;;6.00;3.60;;;-4.10;71.10;;;;;;5028116;28;20042;-85
2024/01/09 09:02:55;;;;;;;6.70;2.60;;;-4.00;70.60;;;;;;5008236;28;20125;-84
2024/01/09 09:05:20;;;;;;;7.20;2.57;;;-4.00;70.60;;;;;;5012670;28;20096;-84
2024/01/09 09:07:50;;;;;;;5.03;2.67;;;-3.90;70.20;;;;;;5026994;28;20038;-85
2024/01/09 09:10:27;;;;;;;6.47;2.60;;;-3.90;69.50;;;;;;5012715;28;20045;-84
2024/01/09 09:12:52;;;;;;;5.80;2.50;;;-3.80;68.80;;;;;;5010247;28;20029;-85
2024/01/09 09:15:18;;;;;;;6.67;2.73;;;-3.70;67.70;;;;;;5012077;28;20106;-85
2024/01/09 09:17:43;;;;;;;5.30;2.53;;;-3.70;66.10;;;;;;5020980;28;20033;-85
2024/01/09 09:20:11;;;;;;;7.30;2.90;;;-3.60;66.80;;;;;;5036772;28;20034;-85
2024/01/09 09:22:38;;;;;;;4.87;3.00;;;-3.60;66.90;;;;;;5012392;28;20499;-86
2024/01/09 09:25:03;;;;;;;7.33;2.70;;;-3.60;66.40;;;;;;5020894;28;20174;-86
2024/01/09 09:27:29;;;;;;;4.87;2.47;;;-3.50;65.80;;;;;;5025005;28;20124;-86
2024/01/09 09:29:55;;;;;;;7.53;3.17;;;-3.50;65.90;;;;;;5026669;28;20044;-85
2024/01/09 09:32:20;;;;;;;5.13;2.50;;;-3.50;65.50;;;;;;5020439;28;20469;-84
2024/01/09 09:34:46;;;;;;;5.60;3.03;;;-3.40;64.80;;;;;;5005489;28;20052;-85
2024/01/09 09:37:12;;;;;;;6.23;2.87;;;-3.40;64.90;;;;;;5007001;28;20034;-85
2024/01/09 09:39:38;;;;;;;7.70;2.83;;;-3.30;64.70;;;;;;5008907;28;20496;-86
2024/01/09 09:42:03;;;;;;;5.17;2.60;;;-3.20;64.10;;;;;;5004990;28;20068;-86
2024/01/09 09:44:29;;;;;;;6.20;2.80;;;-3.20;63.90;;;;;;5009078;28;20085;-85
2024/01/09 09:46:58;;;;;;;6.23;2.83;;;-3.10;64.00;;;;;;5023470;28;20132;-86
2024/01/09 09:49:23;;;;;;;4.33;2.57;;;-3.10;63.40;;;;;;5006686;28;20048;-85
2024/01/09 09:51:50;;;;;;;5.27;2.33;;;-3.10;63.60;;;;;;5007381;28;20029;-85
2024/01/09 09:54:17;;;;;;;5.10;2.97;;;-3.00;62.70;;;;;;5021513;28;20057;-85
2024/01/09 09:56:44;;;;;;;6.40;3.47;;;-2.90;61.40;;;;;;5024720;28;20037;-85
2024/01/09 09:59:11;;;;;;;4.30;2.27;;;-2.90;61.50;;;;;;5005412;28;20081;-86
2024/01/09 10:01:37;;;;;;;5.33;2.77;;;-2.20;62.30;;;;;;5001267;28;20547;-85
2024/01/09 10:04:18;;;;;;;5.17;2.47;;;-2.80;60.80;;;;;;4984291;28;20033;-85
2024/01/09 10:06:46;;;;;;;6.83;2.60;;;-2.70;60.30;;;;;;5000409;28;20034;-86
2024/01/09 10:09:14;;;;;;;5.00;2.50;;;-2.70;60.10;;;;;;5006226;28;20408;-86
2024/01/09 10:11:40;;;;;;;6.57;2.33;;;-2.60;59.50;;;;;;5026988;28;20067;-86
2024/01/09 10:14:09;;;;;;;5.13;2.73;;;-2.50;59.40;;;;;;5006471;28;20038;-87
2024/01/09 10:16:53;;;;;;;3.43;2.00;;;-2.50;59.50;;;;;;5023092;28;20030;-86
2024/01/09 10:19:27;;;;;;;4.97;2.80;;;-2.50;58.80;;;;;;5002889;28;20503;-86
2024/01/09 10:21:52;;;;;;;4.83;2.10;;;-2.50;59.30;;;;;;5007000;28;20044;-86
2024/01/09 10:24:19;;;;;;;5.37;2.50;;;-2.40;59.60;;;;;;5003593;28;20034;-86
2024/01/09 10:26:44;;;;;;;4.93;2.20;;;-2.40;59.20;;;;;;5023406;28;20045;-86
2024/01/09 10:29:11;;;;;;;5.10;2.40;;;-2.30;58.40;;;;;;5023254;28;20041;-85
2024/01/09 10:31:40;;;;;;;4.00;2.10;;;-2.30;57.80;;;;;;5008731;28;20551;-85
2024/01/09 10:34:06;;;;;;;5.27;2.23;;;-2.20;57.80;;;;;;5000083;28;20034;-85
2024/01/09 10:36:32;;;;;;;5.73;2.73;;;-2.20;57.90;;;;;;5010960;28;20519;-85
2024/01/09 10:39:09;;;;;;;6.07;2.73;;;-2.20;57.70;;;;;;5024187;28;20052;-85
2024/01/09 10:41:34;;;;;;;6.83;3.13;;;-2.20;57.40;;;;;;5007499;28;20116;-86
2024/01/09 10:44:01;;;;;;;5.37;2.40;;;-2.10;58.20;;;;;;5022601;28;20077;-85
2024/01/09 10:46:29;;;;;;;5.87;2.60;;;-2.10;58.50;;;;;;5005927;28;20416;-85
2024/01/09 10:48:57;;;;;;;5.20;2.80;;;-1.50;58.40;;;;;;5026333;28;20038;-85
2024/01/09 10:51:23;;;;;;;6.00;3.07;;;-2.00;58.40;;;;;;5004256;28;20033;-85
2024/01/09 10:53:50;;;;;;;6.53;2.70;;;-2.00;58.70;;;;;;5010959;28;20036;-85
2024/01/09 10:56:19;;;;;;;3.97;2.30;;;-2.00;58.50;;;;;;5024446;28;20041;-84
2024/01/09 10:58:46;;;;;;;5.50;2.93;;;-2.00;58.70;;;;;;5011832;28;20041;-85
2024/01/09 11:01:13;;;;;;;5.30;2.40;;;-1.90;58.60;;;;;;5008913;28;20124;-85
2024/01/09 11:03:39;;;;;;;7.60;2.80;;;-1.90;58.80;;;;;;5019985;28;20045;-84
2024/01/09 11:06:07;;;;;;;5.10;2.33;;;-1.80;58.20;;;;;;5005864;28;20222;-84
2024/01/09 11:08:36;;;;;;;4.90;2.37;;;-1.80;58.10;;;;;;5007866;28;20072;-84
2024/01/09 11:11:15;;;;;;;6.13;3.30;;;-1.80;57.20;;;;;;5024378;28;20405;-83
2024/01/09 11:13:46;;;;;;;5.70;2.37;;;-1.70;57.30;;;;;;5028439;28;20050;-83
2024/01/09 11:16:15;;;;;;;4.83;2.30;;;-1.70;57.40;;;;;;5013424;28;20037;-83
2024/01/09 11:18:43;;;;;;;3.80;1.73;;;-1.70;57.60;;;;;;5028156;28;20240;-83
2024/01/09 11:21:11;;;;;;;4.10;2.27;;;-1.70;56.70;;;;;;5026944;28;20117;-83
2024/01/09 11:23:43;;;;;;;4.33;2.30;;;-1.60;56.20;;;;;;5032666;28;20407;-82
2024/01/09 11:26:10;;;;;;;4.83;2.17;;;-1.60;56.00;;;;;;5005331;28;20071;-82
2024/01/09 11:28:37;;;;;;;3.50;1.90;;;-1.60;55.90;;;;;;5026118;28;20075;-82
2024/01/09 11:31:12;;;;;;;5.57;2.10;;;-1.60;55.70;;;;;;5016573;28;20089;-82
2024/01/09 11:33:41;;;;;;;6.00;2.60;;;-1.60;55.80;;;;;;5013912;28;20056;-82
2024/01/09 11:36:08;;;;;;;4.40;2.13;;;-1.60;56.40;;;;;;5024696;28;20038;-82
2024/01/09 11:38:34;;;;;;;5.23;2.30;;;-1.50;56.30;;;;;;5030525;28;20152;-82
2024/01/09 11:41:09;;;;;;;5.50;2.60;;;-1.50;55.80;;;;;;5027683;28;20076;-81
2024/01/09 11:44:15;;;;;;;5.65;2.90;;;-1.50;55.60;;;;;;5032898;28;20535;-80
2024/01/09 11:46:41;;;;;;;4.93;2.53;;;-1.40;55.50;;;;;;5011835;28;20069;-80
2024/01/09 11:49:07;;;;;;;5.07;2.27;;;-1.40;54.80;;;;;;4989103;28;20038;-80
2024/01/09 11:51:33;;;;;;;5.07;1.97;;;-1.40;54.80;;;;;;5008995;28;20053;-80
2024/01/09 11:54:00;;;;;;;4.93;2.23;;;-1.40;54.90;;;;;;5026332;28;20044;-80
2024/01/09 11:56:26;;;;;;;4.80;2.57;;;-1.30;54.60;;;;;;5028570;28;20053;-79
2024/01/09 11:58:53;;;;;;;4.50;2.23;;;-1.30;54.90;;;;;;5025395;28;20038;-79
2024/01/09 12:01:20;;;;;;;5.53;2.10;;;-1.30;54.60;;;;;;5024065;28;20037;-79
2024/01/09 12:03:56;;;;;;;7.53;2.37;;;-1.20;53.90;;;;;;5023039;28;20060;-79
2024/01/09 12:06:28;;;;;;;4.30;2.43;;;-1.20;53.90;;;;;;5006947;28;20048;-79
2024/01/09 12:08:53;;;;;;;6.63;2.60;;;-1.20;53.90;;;;;;5024145;28;20041;-79
2024/01/09 12:11:20;;;;;;;5.30;2.40;;;-1.20;54.10;;;;;;5024570;28;20033;-79
2024/01/09 12:13:45;;;;;;;5.80;3.37;;;-1.20;53.70;;;;;;5021788;28;20169;-79
2024/01/09 12:16:18;;;;;;;4.90;2.33;;;-1.10;52.90;;;;;;5019850;28;20512;-79
2024/01/09 12:18:51;;;;;;;4.27;2.20;;;-1.10;52.60;;;;;;5017481;28;20528;-79
2024/01/09 12:21:18;;;;;;;4.33;2.40;;;-1.10;52.30;;;;;;5019526;28;20085;-79
2024/01/09 12:23:44;;;;;;;5.23;2.40;;;-1.00;52.30;;;;;;5021915;28;20035;-79
2024/01/09 12:26:10;;;;;;;4.63;2.27;;;-1.00;52.20;;;;;;5026166;28;20104;-79
2024/01/09 12:28:37;;;;;;;5.83;2.50;;;-1.00;52.70;;;;;;5024708;28;20502;-79
2024/01/09 12:31:05;;;;;;;5.57;2.43;;;-1.00;52.60;;;;;;5009595;28;20046;-79
2024/01/09 12:33:31;;;;;;;5.33;1.90;;;-1.00;52.30;;;;;;5025955;28;20139;-79
2024/01/09 12:35:57;;;;;;;4.60;2.60;;;-1.00;52.10;;;;;;5010336;28;20038;-79
2024/01/09 12:38:24;;;;;;;4.97;2.20;;;-0.90;52.10;;;;;;5027929;28;20072;-79
2024/01/09 12:41:06;;;;;;;5.10;2.50;;;-0.90;52.40;;;;;;5024248;28;20140;-79